createdAt,value
2022-12-25T00:02:05.467Z,3.42
2022-12-25T00:05:08.804Z,3.54
2022-12-25T00:08:11.517Z,3.74
2022-12-25T00:11:18.044Z,3.58
2022-12-25T00:14:20.768Z,3.93
2022-12-25T00:17:23.729Z,4.01
2022-12-25T00:20:26.419Z,4.08
2022-12-25T00:23:29.827Z,4.03
2022-12-25T00:26:32.589Z,3.97
2022-12-25T00:29:35.841Z,4.00
2022-12-25T00:32:38.720Z,3.82
2022-12-25T00:35:42.104Z,3.85
2022-12-25T00:38:45.706Z,3.99
2022-12-25T00:42:07.510Z,3.92
2022-12-25T00:45:10.420Z,3.91
2022-12-25T00:48:13.285Z,3.99
2022-12-25T00:51:15.909Z,4.27
2022-12-25T00:54:19.735Z,4.42
2022-12-25T00:57:22.460Z,4.41
2022-12-25T01:00:25.348Z,4.43
2022-12-25T01:03:28.631Z,4.50
2022-12-25T01:06:31.792Z,4.55
2022-12-25T01:09:53.051Z,4.88
2022-12-25T01:12:56.065Z,4.81
2022-12-25T01:15:58.708Z,4.79
2022-12-25T01:19:01.880Z,4.82
2022-12-25T01:22:04.542Z,4.91
2022-12-25T01:25:09.117Z,4.94
2022-12-25T01:28:12.081Z,5.11
2022-12-25T01:31:16.850Z,5.23
2022-12-25T01:34:19.548Z,5.28
2022-12-25T01:37:23.602Z,5.35
2022-12-25T01:40:27.312Z,5.31
2022-12-25T01:43:33.152Z,5.27
2022-12-25T01:46:36.130Z,5.20
2022-12-25T01:49:41.500Z,5.04
2022-12-25T01:52:44.914Z,5.08
2022-12-25T01:55:50.578Z,5.13
2022-12-25T01:58:55.758Z,5.16
2022-12-25T02:02:00.666Z,5.02
2022-12-25T02:05:10.271Z,4.93
2022-12-25T02:08:16.256Z,4.92
2022-12-25T02:11:38.337Z,4.94
2022-12-25T02:14:41.072Z,4.87
2022-12-25T02:18:17.173Z,4.86
2022-12-25T02:22:06.709Z,4.91
2022-12-25T02:26:00.151Z,4.90
2022-12-25T02:29:21.593Z,4.79
2022-12-25T02:32:40.042Z,4.80
2022-12-25T02:35:45.924Z,4.79
2022-12-25T02:39:12.675Z,4.76
2022-12-25T02:42:45.668Z,4.98
2022-12-25T02:46:12.364Z,5.09
2022-12-25T02:49:43.529Z,5.19
2022-12-25T02:53:06.322Z,5.08
2022-12-25T02:56:28.793Z,5.03
2022-12-25T02:59:54.753Z,4.99
2022-12-25T03:03:18.420Z,5.11
2022-12-25T03:06:44.501Z,5.02
2022-12-25T03:10:13.994Z,5.07
2022-12-25T03:13:22.011Z,5.21
2022-12-25T03:16:43.245Z,5.19
2022-12-25T03:20:22.263Z,5.17
2022-12-25T03:23:48.529Z,5.16
2022-12-25T03:26:57.737Z,5.16
2022-12-25T03:30:19.344Z,5.21
2022-12-25T03:34:09.290Z,5.10
2022-12-25T03:37:14.624Z,5.26
2022-12-25T03:40:49.284Z,5.31
2022-12-25T03:44:17.755Z,5.42
2022-12-25T03:47:35.740Z,5.43
2022-12-25T03:51:10.334Z,5.47
2022-12-25T03:54:35.477Z,5.60
2022-12-25T03:57:56.689Z,5.62
2022-12-25T04:01:18.100Z,5.60
2022-12-25T04:04:40.219Z,5.62
2022-12-25T04:08:01.547Z,5.52
2022-12-25T04:11:23.159Z,5.51
2022-12-25T04:14:44.705Z,5.54
2022-12-25T04:18:05.812Z,5.51
2022-12-25T04:21:26.737Z,5.58
2022-12-25T04:24:48.430Z,5.53
2022-12-25T04:28:09.676Z,5.52
2022-12-25T04:31:31.595Z,5.51
2022-12-25T04:34:53.222Z,5.43
2022-12-25T04:37:56.683Z,5.32
2022-12-25T04:41:00.611Z,5.33
2022-12-25T04:44:03.751Z,5.28
2022-12-25T04:47:11.233Z,5.25
2022-12-25T04:50:14.817Z,5.09
2022-12-25T04:53:17.769Z,5.06
2022-12-25T04:56:21.584Z,4.98
2022-12-25T04:59:24.345Z,4.79
2022-12-25T05:02:27.619Z,4.73
2022-12-25T05:05:30.334Z,4.61
2022-12-25T05:08:35.131Z,4.54
2022-12-25T05:11:37.942Z,4.42
2022-12-25T05:14:41.350Z,4.29
2022-12-25T05:17:44.005Z,4.24
2022-12-25T05:20:54.463Z,4.27
2022-12-25T05:23:57.053Z,4.15
2022-12-25T05:27:00.089Z,4.22
2022-12-25T05:30:04.019Z,4.20
2022-12-25T05:33:07.588Z,4.22
2022-12-25T05:36:12.077Z,4.22
2022-12-25T05:39:15.124Z,4.19
2022-12-25T05:42:17.713Z,4.27
2022-12-25T05:45:20.564Z,4.16
2022-12-25T05:48:23.547Z,4.40
2022-12-25T05:51:26.631Z,4.54
2022-12-25T05:54:29.193Z,4.51
2022-12-25T05:57:32.447Z,4.52
2022-12-25T06:00:35.161Z,4.48
2022-12-25T06:03:38.300Z,4.48
2022-12-25T06:06:41.266Z,4.40
2022-12-25T06:09:44.210Z,4.36
2022-12-25T06:12:46.787Z,4.41
2022-12-25T06:15:49.773Z,4.47
2022-12-25T06:18:52.428Z,4.49
2022-12-25T06:21:55.487Z,4.55
2022-12-25T06:24:58.801Z,4.58
2022-12-25T06:28:01.739Z,4.65
2022-12-25T06:31:12.006Z,4.56
2022-12-25T06:34:17.047Z,4.69
2022-12-25T06:37:19.936Z,4.61
2022-12-25T06:40:22.923Z,4.56
2022-12-25T06:43:25.507Z,4.63
2022-12-25T06:46:30.457Z,4.64
2022-12-25T06:49:33.019Z,4.65
2022-12-25T06:52:36.096Z,4.61
2022-12-25T06:55:38.703Z,4.68
2022-12-25T06:58:48.603Z,4.80
2022-12-25T07:01:55.857Z,4.84
2022-12-25T07:05:00.043Z,4.81
2022-12-25T07:08:02.687Z,4.87
2022-12-25T07:11:05.643Z,4.89
2022-12-25T07:14:08.184Z,5.16
2022-12-25T07:17:11.801Z,5.18
2022-12-25T07:20:14.484Z,5.23
2022-12-25T07:23:17.515Z,5.23
2022-12-25T07:26:20.186Z,5.25
2022-12-25T07:29:23.092Z,5.28
2022-12-25T07:32:25.994Z,5.39
2022-12-25T07:35:29.151Z,5.46
2022-12-25T07:38:32.105Z,5.48
2022-12-25T07:41:36.056Z,5.54
2022-12-25T07:44:44.936Z,5.61
2022-12-25T07:47:47.889Z,5.68
2022-12-25T07:51:11.952Z,5.64
2022-12-25T07:54:14.926Z,5.79
2022-12-25T07:57:17.693Z,5.88
2022-12-25T08:00:21.258Z,5.87
2022-12-25T08:03:24.391Z,6.02
2022-12-25T08:06:30.988Z,6.06
2022-12-25T08:09:35.570Z,6.08
2022-12-25T08:12:38.141Z,6.22
2022-12-25T08:15:41.677Z,6.30
2022-12-25T08:18:44.527Z,6.44
2022-12-25T08:21:47.351Z,6.56
2022-12-25T08:24:50.002Z,6.60
2022-12-25T08:27:52.995Z,6.67
2022-12-25T08:30:56.038Z,6.79
2022-12-25T08:34:01.973Z,6.93
2022-12-25T08:37:04.621Z,6.93
2022-12-25T08:40:08.336Z,7.10
2022-12-25T08:43:10.910Z,7.14
2022-12-25T08:46:13.920Z,7.24
2022-12-25T08:49:16.676Z,7.28
2022-12-25T08:52:19.578Z,7.43
2022-12-25T08:55:22.316Z,7.50
2022-12-25T08:58:26.106Z,7.59
2022-12-25T09:01:29.251Z,7.65
2022-12-25T09:04:32.398Z,7.80
2022-12-25T09:07:34.965Z,7.89
2022-12-25T09:10:38.011Z,7.99
2022-12-25T09:13:41.260Z,8.04
2022-12-25T09:16:44.139Z,8.01
2022-12-25T09:19:46.722Z,8.18
2022-12-25T09:22:50.001Z,8.27
2022-12-25T09:25:52.583Z,8.35
2022-12-25T09:28:55.582Z,8.43
2022-12-25T09:31:58.462Z,8.57
2022-12-25T09:35:01.330Z,8.73
2022-12-25T09:38:03.893Z,8.81
2022-12-25T09:41:34.206Z,8.97
2022-12-25T09:44:50.141Z,9.10
2022-12-25T09:47:56.607Z,9.19
2022-12-25T09:51:14.859Z,9.26
2022-12-25T09:54:22.630Z,9.25
2022-12-25T09:57:26.377Z,9.43
2022-12-25T10:00:36.516Z,9.44
2022-12-25T10:03:54.632Z,9.50
2022-12-25T10:07:36.094Z,9.66
2022-12-25T10:10:44.683Z,9.72
2022-12-25T10:14:22.667Z,9.73
2022-12-25T10:18:08.297Z,9.72
2022-12-25T10:21:15.645Z,9.87
2022-12-25T10:24:18.467Z,10.00
2022-12-25T10:27:31.550Z,10.04
2022-12-25T10:30:34.404Z,10.17
2022-12-25T10:33:37.351Z,10.20
2022-12-25T10:36:42.095Z,10.31
2022-12-25T10:39:54.802Z,10.31
2022-12-25T10:43:08.251Z,10.37
2022-12-25T10:46:12.917Z,10.45
2022-12-25T10:49:17.574Z,10.58
2022-12-25T10:52:23.296Z,10.66
2022-12-25T10:55:29.216Z,10.77
2022-12-25T10:58:33.494Z,10.83
2022-12-25T11:01:36.592Z,10.92
2022-12-25T11:04:39.478Z,10.99
2022-12-25T11:07:51.377Z,10.98
2022-12-25T11:11:08.521Z,11.03
2022-12-25T11:14:18.102Z,11.08
2022-12-25T11:17:24.654Z,11.05
2022-12-25T11:20:27.690Z,11.08
2022-12-25T11:23:32.829Z,11.19
2022-12-25T11:26:54.006Z,11.27
2022-12-25T11:30:03.307Z,11.34
2022-12-25T11:33:12.588Z,11.40
2022-12-25T11:36:45.112Z,11.45
2022-12-25T11:39:48.824Z,11.38
2022-12-25T11:42:57.482Z,11.33
2022-12-25T11:46:15.535Z,11.26
2022-12-25T11:49:21.539Z,11.20
2022-12-25T11:52:29.361Z,11.31
2022-12-25T11:55:54.489Z,11.23
2022-12-25T11:59:04.064Z,11.39
2022-12-25T12:02:33.524Z,11.21
2022-12-25T12:05:46.109Z,11.24
2022-12-25T12:08:53.933Z,11.25
2022-12-25T12:12:20.707Z,11.17
2022-12-25T12:15:30.154Z,10.92
2022-12-25T12:18:33.925Z,10.95
2022-12-25T12:21:36.803Z,10.94
2022-12-25T12:24:43.060Z,10.90
2022-12-25T12:27:46.085Z,10.85
2022-12-25T12:31:04.464Z,10.87
2022-12-25T12:34:16.245Z,10.84
2022-12-25T12:37:25.299Z,10.90
2022-12-25T12:40:31.323Z,10.82
2022-12-25T12:43:34.257Z,10.83
2022-12-25T12:46:37.622Z,10.93
2022-12-25T12:49:40.967Z,10.89
2022-12-25T12:52:43.581Z,10.93
2022-12-25T12:55:46.544Z,10.86
2022-12-25T12:58:51.104Z,10.83
2022-12-25T13:02:09.328Z,10.94
2022-12-25T13:05:50.531Z,10.84
2022-12-25T13:09:02.411Z,10.77
2022-12-25T13:12:08.309Z,10.69
2022-12-25T13:15:13.458Z,10.71
2022-12-25T13:18:16.448Z,10.54
2022-12-25T13:21:25.531Z,10.53
2022-12-25T13:24:31.786Z,10.43
2022-12-25T13:27:34.833Z,10.47
2022-12-25T13:30:37.456Z,10.42
2022-12-25T13:33:44.727Z,10.36
2022-12-25T13:36:48.489Z,10.30
2022-12-25T13:40:05.106Z,10.32
2022-12-25T13:43:11.796Z,10.27
2022-12-25T13:46:15.527Z,10.27
2022-12-25T13:49:21.851Z,10.16
2022-12-25T13:52:37.114Z,10.18
2022-12-25T13:55:41.821Z,10.14
2022-12-25T13:58:47.448Z,10.00
2022-12-25T14:01:51.926Z,9.89
2022-12-25T14:04:55.028Z,9.76
2022-12-25T14:08:02.644Z,9.66
2022-12-25T14:11:08.074Z,9.62
2022-12-25T14:14:21.023Z,9.44
2022-12-25T14:17:24.887Z,9.38
2022-12-25T14:20:27.540Z,9.28
2022-12-25T14:23:42.991Z,9.10
2022-12-25T14:26:45.750Z,8.98
2022-12-25T14:29:51.305Z,8.79
2022-12-25T14:32:55.373Z,8.67
2022-12-25T14:35:59.149Z,8.52
2022-12-25T14:39:05.799Z,8.46
2022-12-25T14:42:19.224Z,8.30
2022-12-25T14:45:33.291Z,8.24
2022-12-25T14:48:36.359Z,8.15
2022-12-25T14:51:39.436Z,8.08
2022-12-25T14:54:51.093Z,7.97
2022-12-25T14:57:58.712Z,7.87
2022-12-25T15:01:04.316Z,7.84
2022-12-25T15:04:09.973Z,7.75
2022-12-25T15:07:28.940Z,7.80
2022-12-25T15:13:55.982Z,7.81
2022-12-25T15:17:01.234Z,7.74
2022-12-25T15:20:05.505Z,7.80
2022-12-25T15:23:21.160Z,7.83
2022-12-25T15:26:25.279Z,7.83
2022-12-25T15:32:51.905Z,7.91
2022-12-25T15:35:54.627Z,7.86
2022-12-25T15:38:57.921Z,7.88
2022-12-25T15:42:12.793Z,7.89
2022-12-25T15:45:25.081Z,7.85
2022-12-25T15:48:27.694Z,7.78
2022-12-25T15:51:30.781Z,7.85
2022-12-25T15:54:33.856Z,7.89
2022-12-25T15:57:38.002Z,7.91
2022-12-25T16:00:40.870Z,7.99
2022-12-25T16:03:44.439Z,7.97
2022-12-25T16:06:47.531Z,7.96
2022-12-25T16:09:51.021Z,7.85
2022-12-25T16:12:53.632Z,7.90
2022-12-25T16:15:57.523Z,7.91
2022-12-25T16:19:00.305Z,7.89
2022-12-25T16:22:13.689Z,7.89
2022-12-25T16:25:19.396Z,7.89
2022-12-25T16:28:22.326Z,7.91
2022-12-25T16:31:25.435Z,7.93
2022-12-25T16:34:28.589Z,7.97
2022-12-25T16:37:31.266Z,8.02
2022-12-25T16:40:34.439Z,7.99
2022-12-25T16:43:37.174Z,8.00
2022-12-25T16:46:40.540Z,7.95
2022-12-25T16:49:43.484Z,7.95
2022-12-25T16:52:46.593Z,7.86
2022-12-25T16:55:49.135Z,7.92
2022-12-25T16:58:52.168Z,7.92
2022-12-25T17:01:54.973Z,7.85
2022-12-25T17:04:58.510Z,7.89
2022-12-25T17:08:01.155Z,7.79
2022-12-25T17:11:04.952Z,7.82
2022-12-25T17:14:07.551Z,7.84
2022-12-25T17:17:10.545Z,7.87
2022-12-25T17:20:13.113Z,7.85
2022-12-25T17:23:16.116Z,7.84
2022-12-25T17:26:18.693Z,7.81
2022-12-25T17:29:22.774Z,7.81
2022-12-25T17:32:25.679Z,7.79
2022-12-25T17:35:30.208Z,7.80
2022-12-25T17:38:33.729Z,7.80
2022-12-25T17:41:36.792Z,7.77
2022-12-25T17:44:39.380Z,7.79
2022-12-25T17:47:42.283Z,7.79
2022-12-25T17:50:47.092Z,7.79
2022-12-25T17:53:52.913Z,7.79
2022-12-25T17:56:55.554Z,7.82
2022-12-25T17:59:58.458Z,7.82
2022-12-25T18:03:05.785Z,7.82
2022-12-25T18:06:18.129Z,7.86
2022-12-25T18:09:20.716Z,7.80
2022-12-25T18:12:23.586Z,7.79
2022-12-25T18:15:26.208Z,7.75
2022-12-25T18:18:29.676Z,7.77
2022-12-25T18:21:32.366Z,7.78
2022-12-25T18:24:35.235Z,7.81
2022-12-25T18:27:37.873Z,7.82
2022-12-25T18:30:42.455Z,7.83
2022-12-25T18:33:46.070Z,7.83
2022-12-25T18:36:49.308Z,7.84
2022-12-25T18:39:51.886Z,7.85
2022-12-25T18:43:01.081Z,7.93
2022-12-25T18:46:07.413Z,7.96
2022-12-25T18:49:11.083Z,7.92
2022-12-25T18:52:47.309Z,7.92
2022-12-25T18:55:36.504Z,7.98
2022-12-25T18:58:39.185Z,7.88
2022-12-25T19:01:42.258Z,7.95
2022-12-25T19:04:45.344Z,7.89
2022-12-25T19:07:48.335Z,7.93
2022-12-25T19:10:51.017Z,7.90
2022-12-25T19:13:53.970Z,7.90
2022-12-25T19:16:57.114Z,7.89
2022-12-25T19:20:00.281Z,7.88
2022-12-25T19:23:03.750Z,7.80
2022-12-25T19:26:09.351Z,7.72
2022-12-25T19:29:12.827Z,7.63
2022-12-25T19:32:16.324Z,7.58
2022-12-25T19:35:19.206Z,7.53
2022-12-25T19:38:22.082Z,7.52
2022-12-25T19:41:24.795Z,7.51
2022-12-25T19:44:27.812Z,7.52
2022-12-25T19:47:30.505Z,7.56
2022-12-25T19:50:33.475Z,7.48
2022-12-25T19:53:36.304Z,7.45
2022-12-25T19:56:39.425Z,7.47
2022-12-25T19:59:42.050Z,7.41
2022-12-25T20:02:45.153Z,7.46
2022-12-25T20:05:48.101Z,7.39
2022-12-25T20:08:54.155Z,7.49
2022-12-25T20:11:57.484Z,7.56
2022-12-25T20:15:00.127Z,7.60
2022-12-25T20:18:03.170Z,7.61
2022-12-25T20:21:10.686Z,7.63
2022-12-25T20:24:13.553Z,7.66
2022-12-25T20:27:16.149Z,7.68
2022-12-25T20:30:19.306Z,7.66
2022-12-25T20:33:23.290Z,7.66
2022-12-25T20:36:31.177Z,7.66
2022-12-25T20:39:39.141Z,7.65
2022-12-25T20:42:43.466Z,7.68
2022-12-25T20:45:46.148Z,7.67
2022-12-25T20:48:49.362Z,7.63
2022-12-25T20:51:51.970Z,7.61
2022-12-25T20:54:54.868Z,7.54
2022-12-25T20:57:57.425Z,7.59
2022-12-25T21:01:04.236Z,7.58
2022-12-25T21:04:10.430Z,7.57
2022-12-25T21:07:17.384Z,7.61
2022-12-25T21:10:19.976Z,7.61
2022-12-25T21:13:24.818Z,7.61
2022-12-25T21:16:28.108Z,7.57
2022-12-25T21:19:31.076Z,7.63
2022-12-25T21:22:33.779Z,7.66
2022-12-25T21:25:36.676Z,7.68
2022-12-25T21:28:39.465Z,7.72
2022-12-25T21:32:01.307Z,7.79
2022-12-25T21:35:04.460Z,7.83
2022-12-25T21:38:07.449Z,7.87
2022-12-25T21:41:11.605Z,7.87
2022-12-25T21:44:15.833Z,7.85
2022-12-25T21:47:18.466Z,7.83
2022-12-25T21:50:40.314Z,7.82
2022-12-25T21:53:42.998Z,7.82
2022-12-25T21:56:47.399Z,7.85
2022-12-25T21:59:50.029Z,7.86
2022-12-25T22:02:53.049Z,7.85
2022-12-25T22:06:21.441Z,7.83
2022-12-25T22:09:24.996Z,7.77
2022-12-25T22:12:46.611Z,7.75
2022-12-25T22:16:07.812Z,7.78
2022-12-25T22:19:29.180Z,7.72
2022-12-25T22:22:32.046Z,7.76
2022-12-25T22:25:35.006Z,7.76
2022-12-25T22:28:37.628Z,7.79
2022-12-25T22:31:46.485Z,7.80
2022-12-25T22:34:49.668Z,7.82
2022-12-25T22:37:54.090Z,7.83
2022-12-25T22:40:56.976Z,7.84
2022-12-25T22:44:17.061Z,7.85
2022-12-25T22:47:20.421Z,7.85
2022-12-25T22:50:23.527Z,7.88
2022-12-25T22:53:26.122Z,7.80
2022-12-25T22:56:29.036Z,7.84
2022-12-25T22:59:33.044Z,7.90
2022-12-25T23:02:36.411Z,7.90
2022-12-25T23:05:39.226Z,7.91
2022-12-25T23:08:42.107Z,7.90
2022-12-25T23:11:45.353Z,7.87
2022-12-25T23:14:48.177Z,7.90
2022-12-25T23:18:09.426Z,7.88
2022-12-25T23:21:36.280Z,7.86
2022-12-25T23:24:57.203Z,7.85
2022-12-25T23:28:00.138Z,7.85
2022-12-25T23:31:02.843Z,7.87
2022-12-25T23:34:07.172Z,7.86
2022-12-25T23:37:10.978Z,7.86
2022-12-25T23:40:13.931Z,7.88
2022-12-25T23:43:16.606Z,7.86
2022-12-25T23:46:20.050Z,7.87
2022-12-25T23:49:23.837Z,7.85
2022-12-25T23:52:26.890Z,7.89
2022-12-25T23:55:29.680Z,7.84
2022-12-25T23:58:32.704Z,7.84
